»·PEaware :: UPS797 KELP-KABQ

UPS797 :: KELP-KABQ

FLIGHT INFORMATION

Flight Status: Arrived
Operator:
United Parcel Service
More flights by this operator :: More flights under this callsign
Pilot: Mike C. (16705)
Aircraft: BOEING 757-200
(B752)
More flights by this aircraft type
Origin: KELP El Paso Intl
United States
Destination: KABQ Albuquerque Intl Sunport
United States
More flights between these airports :: More routes between these airports
Route: +LATVE3 CME MIERA2
File this flight plan on PilotEdge
Remarks:
Altitude:
(Current/Filed)
37,000ft
Speed:
(Current/Filed)
440kts
Departed: 20-Apr-20 06:51 PM
Arrived: 20-Apr-20 07:48 PM
Distance/Time
Traveled:
194nm/0:57
Distance/Time
To Go:
Arrived

Flight Plot

Page will automatically refresh every two minutes.

Flight plan parsing failed; only flown route is shown


Map Options




Map Legend


Flown Route
Filed Route
Departure Airport
Arrival Airport
Navaid (VOR, NDB)
Fix

Horizontal Profiles

Position Reports

Time Latitude Longitude Heading Altitude Ground
Speed
20-Apr-20 17:53 31.805369 -106.400131 359 3947ft 0kts
20-Apr-20 17:54 31.805369 -106.400131 359 3947ft 0kts
20-Apr-20 17:55 31.805369 -106.400131 359 3947ft 0kts
20-Apr-20 17:56 31.805369 -106.400131 359 3947ft 0kts
20-Apr-20 17:57 31.805369 -106.400131 359 3947ft 0kts
20-Apr-20 17:58 31.805369 -106.400131 359 3947ft 0kts
20-Apr-20 17:59 31.805369 -106.400131 359 3947ft 0kts
20-Apr-20 18:00 31.805369 -106.400131 359 3947ft 0kts
20-Apr-20 18:01 31.805369 -106.400131 359 3947ft 0kts
20-Apr-20 18:02 31.805369 -106.400131 359 3947ft 0kts
20-Apr-20 18:03 31.805369 -106.400131 359 3947ft 0kts
20-Apr-20 18:04 31.805369 -106.400131 359 3947ft 0kts
20-Apr-20 18:05 31.805369 -106.400131 359 3947ft 0kts
20-Apr-20 18:06 31.805369 -106.400131 359 3947ft 0kts
20-Apr-20 18:07 31.805369 -106.400131 359 3947ft 0kts
20-Apr-20 18:08 31.805369 -106.400131 359 3947ft 0kts
20-Apr-20 18:09 31.805369 -106.400131 359 3947ft 0kts
20-Apr-20 18:10 31.805369 -106.400131 359 3947ft 0kts
20-Apr-20 18:11 31.805369 -106.400131 359 3947ft 0kts
20-Apr-20 18:12 31.805369 -106.400131 359 3947ft 0kts
20-Apr-20 18:13 31.805369 -106.400131 359 3947ft 0kts
20-Apr-20 18:14 31.805369 -106.400131 359 3947ft 0kts
20-Apr-20 18:15 31.805369 -106.400131 359 3947ft 0kts
20-Apr-20 18:16 31.805369 -106.400131 359 3947ft 0kts
20-Apr-20 18:17 31.805369 -106.400131 359 3947ft 0kts
20-Apr-20 18:18 31.805369 -106.400131 359 3947ft 0kts
20-Apr-20 18:19 31.805369 -106.400131 359 3947ft 0kts
20-Apr-20 18:20 31.805369 -106.400131 359 3947ft 0kts
20-Apr-20 18:21 31.805369 -106.400131 359 3947ft 0kts
20-Apr-20 18:22 31.805369 -106.400131 359 3947ft 0kts
20-Apr-20 18:23 31.805369 -106.400131 359 3947ft 0kts
20-Apr-20 18:24 31.805369 -106.400131 359 3947ft 0kts
20-Apr-20 18:25 31.805369 -106.400131 359 3947ft 0kts
20-Apr-20 18:26 31.805369 -106.400131 359 3947ft 0kts
20-Apr-20 18:27 31.805369 -106.400131 359 3947ft 0kts
20-Apr-20 18:28 31.805369 -106.400131 359 3947ft 0kts
20-Apr-20 18:29 31.805369 -106.400131 359 3947ft 0kts
20-Apr-20 18:30 31.805369 -106.400131 359 3947ft 0kts
20-Apr-20 18:31 31.805369 -106.400131 359 3947ft 0kts
20-Apr-20 18:32 31.805369 -106.400131 359 3947ft 0kts
20-Apr-20 18:33 31.804897 -106.399928 300 3947ft 2kts
20-Apr-20 18:34 31.804944 -106.399380 228 3947ft 1kts
20-Apr-20 18:35 31.804955 -106.399364 229 3947ft 0kts
20-Apr-20 18:36 31.804955 -106.399364 229 3947ft 0kts
20-Apr-20 18:37 31.804237 -106.400358 230 3947ft 5kts
20-Apr-20 18:38 31.803128 -106.401103 147 3947ft 6kts
20-Apr-20 18:39 31.801430 -106.399504 141 3947ft 9kts
20-Apr-20 18:41 31.801550 -106.396409 90 3947ft 12kts
20-Apr-20 18:42 31.801022 -106.391755 126 3947ft 16kts
20-Apr-20 18:43 31.799908 -106.386291 89 3947ft 19kts
20-Apr-20 18:44 31.799926 -106.380169 88 3946ft 17kts
20-Apr-20 18:45 31.799727 -106.375165 95 3947ft 13kts
20-Apr-20 18:46 31.799490 -106.370574 92 3947ft 16kts
20-Apr-20 18:47 31.799210 -106.364517 94 3947ft 15kts
20-Apr-20 18:48 31.799024 -106.360824 78 3947ft 6kts
20-Apr-20 18:49 31.799702 -106.360342 1 3947ft 0kts
20-Apr-20 18:50 31.800677 -106.360911 277 3947ft 7kts
20-Apr-20 18:51 31.802394 -106.392332 269 4830ft 149kts
20-Apr-20 18:52 31.772032 -106.393876 125 5291ft 205kts
20-Apr-20 18:53 31.733934 -106.336160 130 5694ft 267kts
20-Apr-20 18:54 31.721461 -106.246226 109 7433ft 292kts
20-Apr-20 18:55 31.685226 -106.163865 81 9386ft 303kts
20-Apr-20 18:56 31.742644 -106.090142 27 10207ft 346kts
20-Apr-20 18:57 31.830157 -106.035769 33 11963ft 365kts
20-Apr-20 18:58 31.911664 -105.961736 33 13750ft 377kts
20-Apr-20 18:59 31.984533 -105.868836 42 15362ft 394kts
20-Apr-20 18:59 32.047242 -105.788570 42 16664ft 404kts
20-Apr-20 19:00 32.132173 -105.701142 33 18240ft 410kts
20-Apr-20 19:02 32.235738 -105.598633 33 20019ft 423kts
20-Apr-20 19:02 32.311497 -105.523485 33 21247ft 432kts
20-Apr-20 19:03 32.404320 -105.431028 33 22801ft 441kts
20-Apr-20 19:04 32.500557 -105.338622 31 24284ft 451kts
20-Apr-20 19:05 32.599915 -105.243433 32 25408ft 466kts
20-Apr-20 19:06 32.701717 -105.145549 32 26589ft 478kts
20-Apr-20 19:07 32.810402 -105.054538 25 27691ft 485kts
20-Apr-20 19:08 32.923204 -104.962797 25 28793ft 497kts
20-Apr-20 19:09 33.038200 -104.868399 25 29879ft 507kts
20-Apr-20 19:10 33.155805 -104.771540 25 30869ft 518kts
20-Apr-20 19:11 33.280718 -104.702874 354 31979ft 473kts
20-Apr-20 19:12 33.401782 -104.718419 327 32488ft 418kts
20-Apr-20 19:13 33.494564 -104.784851 309 33978ft 378kts
20-Apr-20 19:14 33.574912 -104.862623 306 33981ft 371kts
20-Apr-20 19:15 33.656883 -104.938528 319 34018ft 393kts
20-Apr-20 19:16 33.759238 -104.990260 320 34041ft 396kts
20-Apr-20 19:17 33.854544 -105.051626 316 34077ft 389kts
20-Apr-20 19:18 33.932480 -105.131939 305 34121ft 370kts
20-Apr-20 19:19 34.011235 -105.209695 308 32905ft 361kts
20-Apr-20 19:20 34.091667 -105.286280 310 31295ft 376kts
20-Apr-20 19:21 34.175845 -105.365870 311 29371ft 381kts
20-Apr-20 19:22 34.259125 -105.444789 313 27610ft 377kts
20-Apr-20 19:23 34.341649 -105.523201 314 25849ft 375kts
20-Apr-20 19:24 34.423722 -105.601381 316 24087ft 372kts
20-Apr-20 19:25 34.504670 -105.678658 316 22354ft 365kts
20-Apr-20 19:26 34.583912 -105.754529 317 20785ft 360kts
20-Apr-20 19:27 34.634954 -105.803488 317 19810ft 356kts
20-Apr-20 19:28 34.685260 -105.851824 318 18836ft 352kts
20-Apr-20 19:29 34.761670 -105.925389 318 17334ft 348kts
20-Apr-20 19:30 34.836891 -105.997971 318 15818ft 335kts
20-Apr-20 19:31 34.907531 -106.067059 311 15008ft 317kts
20-Apr-20 19:32 34.927896 -106.167170 268 13776ft 311kts
20-Apr-20 19:33 34.920377 -106.272321 263 11991ft 311kts
20-Apr-20 19:34 34.910842 -106.374745 263 10552ft 282kts
20-Apr-20 19:35 34.893446 -106.458939 245 9135ft 252kts
20-Apr-20 19:36 34.858791 -106.530195 239 8151ft 217kts
20-Apr-20 19:37 34.830792 -106.595190 253 8086ft 216kts
20-Apr-20 19:38 34.812924 -106.665450 253 8084ft 216kts
20-Apr-20 19:39 34.796362 -106.732190 261 8095ft 202kts
20-Apr-20 19:40 34.810530 -106.795551 330 8072ft 198kts
20-Apr-20 19:41 34.864134 -106.799204 3 8079ft 195kts
20-Apr-20 19:42 34.907334 -106.768851 43 7987ft 159kts
20-Apr-20 19:43 34.938665 -106.731244 43 7635ft 148kts
20-Apr-20 19:44 34.967553 -106.696073 42 6972ft 148kts
20-Apr-20 19:45 34.997811 -106.659723 42 6075ft 156kts
20-Apr-20 19:46 35.027050 -106.624848 44 5366ft 112kts
20-Apr-20 19:47 35.034161 -106.618152 306 5365ft 5kts
20-Apr-20 19:48 35.035217 -106.619322 9 5365ft 4kts
20-Apr-20 19:49 35.035557 -106.619082 33 5365ft 0kts
20-Apr-20 19:50 35.035557 -106.619083 33 5365ft 0kts

Navigation Log

Ident Type
Flight plan parsing failed, navigation log unavailable